createdAt,value
2023-05-21T00:01:49.995Z,79.65
2023-05-21T00:04:35.203Z,79.65
2023-05-21T00:07:20.961Z,79.51
2023-05-21T00:10:06.978Z,79.59
2023-05-21T00:12:52.416Z,80.03
2023-05-21T00:15:38.734Z,80.15
2023-05-21T00:18:25.917Z,80.38
2023-05-21T00:21:12.188Z,80.55
2023-05-21T00:23:57.480Z,80.67
2023-05-21T00:26:42.751Z,80.95
2023-05-21T00:29:30.053Z,81.31
2023-05-21T00:32:15.347Z,81.17
2023-05-21T00:35:00.796Z,81.39
2023-05-21T00:37:47.593Z,81.64
2023-05-21T00:40:34.355Z,82.21
2023-05-21T00:43:19.833Z,82.03
2023-05-21T00:46:05.485Z,81.77
2023-05-21T00:48:51.220Z,82.09
2023-05-21T00:51:36.693Z,82.02
2023-05-21T00:54:22.473Z,82.64
2023-05-21T00:57:07.926Z,82.53
2023-05-21T00:59:53.515Z,82.60
2023-05-21T01:02:39.209Z,82.45
2023-05-21T01:05:24.588Z,82.81
2023-05-21T01:08:10.206Z,83.14
2023-05-21T01:10:57.020Z,83.51
2023-05-21T01:13:43.345Z,83.40
2023-05-21T01:16:29.154Z,83.81
2023-05-21T01:19:17.175Z,84.06
2023-05-21T01:22:07.777Z,83.99
2023-05-21T01:24:55.378Z,84.69
2023-05-21T01:27:40.596Z,84.49
2023-05-21T01:30:26.287Z,84.51
2023-05-21T01:33:36.531Z,85.29
2023-05-21T01:36:26.196Z,85.55
2023-05-21T01:39:22.986Z,85.66
2023-05-21T01:42:10.560Z,85.53
2023-05-21T01:44:57.256Z,86.15
2023-05-21T01:47:47.692Z,86.29
2023-05-21T01:50:34.330Z,86.33
2023-05-21T01:53:19.822Z,86.83
2023-05-21T01:56:05.694Z,86.85
2023-05-21T01:58:52.468Z,86.78
2023-05-21T02:01:37.950Z,87.28
2023-05-21T02:04:23.452Z,87.11
2023-05-21T02:07:10.161Z,87.59
2023-05-21T02:09:55.287Z,87.63
2023-05-21T02:12:40.815Z,88.25
2023-05-21T02:15:27.276Z,88.21
2023-05-21T02:18:16.801Z,88.74
2023-05-21T02:21:03.448Z,89.02
2023-05-21T02:23:49.182Z,89.27
2023-05-21T02:26:34.859Z,89.20
2023-05-21T02:29:20.102Z,89.49
2023-05-21T02:32:05.559Z,90.10
2023-05-21T02:34:51.071Z,89.99
2023-05-21T02:37:37.450Z,90.41
2023-05-21T02:40:24.250Z,90.68
2023-05-21T02:43:09.490Z,90.85
2023-05-21T02:45:55.022Z,91.35
2023-05-21T02:48:40.296Z,91.45
2023-05-21T02:51:25.795Z,91.96
2023-05-21T02:54:10.817Z,91.54
2023-05-21T02:56:56.577Z,92.10
2023-05-21T02:59:41.914Z,92.48
2023-05-21T03:02:27.434Z,92.78
2023-05-21T03:05:13.057Z,92.79
2023-05-21T03:07:58.473Z,93.12
2023-05-21T03:10:44.472Z,93.14
2023-05-21T03:13:29.683Z,93.50
2023-05-21T03:16:15.170Z,93.55
2023-05-21T03:19:01.212Z,93.50
2023-05-21T03:21:50.546Z,93.85
2023-05-21T03:24:36.614Z,93.80
2023-05-21T03:27:22.413Z,94.09
2023-05-21T03:30:09.389Z,94.46
2023-05-21T03:33:06.631Z,94.11
2023-05-21T03:35:52.539Z,94.11
2023-05-21T03:38:38.420Z,94.39
2023-05-21T03:41:23.960Z,94.36
2023-05-21T03:44:14.620Z,94.61
2023-05-21T03:47:11.650Z,94.10
2023-05-21T03:49:56.906Z,94.28
2023-05-21T03:52:42.426Z,93.92
2023-05-21T03:55:27.842Z,94.12
2023-05-21T03:58:13.180Z,93.91
2023-05-21T04:01:01.758Z,93.95
2023-05-21T04:03:48.058Z,94.14
2023-05-21T04:06:35.334Z,93.82
2023-05-21T04:09:21.338Z,93.72
2023-05-21T04:12:07.853Z,93.65
2023-05-21T04:14:55.909Z,93.49
2023-05-21T04:17:41.520Z,93.22
2023-05-21T04:20:27.230Z,92.68
2023-05-21T04:23:12.917Z,92.47
2023-05-21T04:25:59.217Z,92.08
2023-05-21T04:28:45.797Z,91.83
2023-05-21T04:31:32.497Z,91.58
2023-05-21T04:34:20.292Z,91.47
2023-05-21T04:37:06.804Z,90.58
2023-05-21T04:39:53.507Z,90.13
2023-05-21T04:42:39.096Z,89.87
2023-05-21T04:45:24.888Z,89.60
2023-05-21T04:48:12.612Z,88.91
2023-05-21T04:50:59.833Z,88.99
2023-05-21T04:53:46.152Z,88.57
2023-05-21T04:56:31.808Z,88.87
2023-05-21T04:59:18.561Z,88.54
2023-05-21T05:02:05.508Z,88.33
2023-05-21T05:04:50.676Z,88.07
2023-05-21T05:07:35.946Z,88.03
2023-05-21T05:10:21.682Z,87.43
2023-05-21T05:13:07.634Z,86.67
2023-05-21T05:15:54.767Z,86.75
2023-05-21T05:18:40.734Z,86.15
2023-05-21T05:21:26.573Z,86.02
2023-05-21T05:24:11.842Z,85.74
2023-05-21T05:26:57.082Z,85.29
2023-05-21T05:29:42.309Z,84.95
2023-05-21T05:32:27.756Z,85.21
2023-05-21T05:35:14.319Z,85.25
2023-05-21T05:38:00.392Z,85.17
2023-05-21T05:40:45.593Z,84.13
2023-05-21T05:43:30.826Z,83.46
2023-05-21T05:46:17.759Z,83.13
2023-05-21T05:49:04.081Z,82.74
2023-05-21T05:51:49.370Z,82.52
2023-05-21T05:54:35.376Z,81.94
2023-05-21T05:57:20.701Z,81.07
2023-05-21T06:00:11.457Z,80.39
2023-05-21T06:03:03.671Z,80.96
2023-05-21T06:05:50.178Z,80.42
2023-05-21T06:08:38.048Z,79.23
2023-05-21T06:11:23.756Z,78.74
2023-05-21T06:14:09.079Z,77.93
2023-05-21T06:16:54.847Z,77.50
2023-05-21T06:19:40.391Z,77.07
2023-05-21T06:22:26.035Z,76.90
2023-05-21T06:25:11.531Z,77.20
2023-05-21T06:27:57.464Z,77.36
2023-05-21T06:30:45.199Z,76.90
2023-05-21T06:33:30.616Z,76.46
2023-05-21T06:36:16.591Z,76.02
2023-05-21T06:39:03.302Z,76.16
2023-05-21T06:41:49.418Z,75.71
2023-05-21T06:44:53.176Z,75.16
2023-05-21T06:47:46.649Z,75.11
2023-05-21T06:50:32.232Z,75.41
2023-05-21T06:53:18.800Z,75.17
2023-05-21T06:56:04.142Z,74.58
2023-05-21T06:58:59.356Z,74.36
2023-05-21T07:01:45.029Z,73.64
2023-05-21T07:04:32.041Z,72.80
2023-05-21T07:07:17.529Z,72.21
2023-05-21T07:10:03.065Z,72.02
2023-05-21T07:12:48.388Z,71.22
2023-05-21T07:15:33.895Z,71.24
2023-05-21T07:18:20.026Z,70.09
2023-05-21T07:21:05.414Z,69.21
2023-05-21T07:23:50.568Z,68.71
2023-05-21T07:26:36.880Z,67.97
2023-05-21T07:29:22.550Z,67.14
2023-05-21T07:32:07.897Z,67.24
2023-05-21T07:34:54.684Z,66.80
2023-05-21T07:37:43.546Z,67.05
2023-05-21T07:40:28.626Z,66.51
2023-05-21T07:43:14.290Z,66.03
2023-05-21T07:46:00.057Z,66.29
2023-05-21T07:48:46.527Z,65.37
2023-05-21T07:51:32.160Z,65.57
2023-05-21T07:54:17.586Z,65.31
2023-05-21T07:57:03.914Z,65.11
2023-05-21T08:00:24.093Z,64.79
2023-05-21T08:03:17.476Z,64.67
2023-05-21T08:06:03.201Z,63.30
2023-05-21T08:08:48.526Z,62.85
2023-05-21T08:11:34.404Z,61.81
2023-05-21T08:14:20.741Z,60.97
2023-05-21T08:17:06.919Z,61.00
2023-05-21T08:19:51.971Z,61.15
2023-05-21T08:22:37.337Z,60.63
2023-05-21T08:25:23.138Z,60.34
2023-05-21T08:28:08.662Z,60.14
2023-05-21T08:30:54.082Z,59.41
2023-05-21T08:33:50.340Z,59.18
2023-05-21T08:36:36.589Z,58.39
2023-05-21T08:39:26.846Z,57.18
2023-05-21T08:42:37.429Z,57.07
2023-05-21T08:45:24.043Z,56.35
2023-05-21T08:48:14.100Z,56.53
2023-05-21T08:51:00.895Z,56.27
2023-05-21T08:53:51.122Z,55.91
2023-05-21T08:56:45.548Z,55.09
2023-05-21T08:59:30.990Z,53.34
2023-05-21T09:02:19.985Z,52.93
2023-05-21T09:05:06.368Z,52.91
2023-05-21T09:08:28.010Z,52.62
2023-05-21T09:11:23.234Z,52.13
2023-05-21T09:14:14.831Z,52.88
2023-05-21T09:17:16.981Z,51.19
2023-05-21T09:20:14.979Z,51.12
2023-05-21T09:23:17.974Z,51.50
2023-05-21T09:26:12.602Z,52.46
2023-05-21T09:29:00.298Z,52.11
2023-05-21T09:31:45.749Z,52.31
2023-05-21T09:34:36.113Z,52.24
2023-05-21T09:37:27.451Z,51.03
2023-05-21T09:40:15.870Z,50.76
2023-05-21T09:43:03.132Z,51.19
2023-05-21T09:45:53.135Z,51.19
2023-05-21T09:48:42.058Z,51.12
2023-05-21T09:51:39.203Z,50.33
2023-05-21T09:54:26.016Z,50.29
2023-05-21T09:57:14.292Z,49.95
2023-05-21T09:59:59.841Z,50.44
2023-05-21T10:02:47.681Z,49.54
2023-05-21T10:05:33.609Z,49.25
2023-05-21T10:08:22.592Z,48.05
2023-05-21T10:11:08.902Z,48.31
2023-05-21T10:14:09.050Z,48.36
2023-05-21T10:16:54.536Z,48.12
2023-05-21T10:19:41.343Z,48.26
2023-05-21T10:22:28.106Z,48.26
2023-05-21T10:25:13.516Z,47.95
2023-05-21T10:28:00.006Z,47.87
2023-05-21T10:30:46.429Z,46.94
2023-05-21T10:33:33.528Z,46.51
2023-05-21T10:36:20.304Z,46.30
2023-05-21T10:39:08.035Z,45.90
2023-05-21T10:42:06.003Z,46.05
2023-05-21T10:45:00.773Z,46.08
2023-05-21T10:48:27.822Z,46.62
2023-05-21T10:51:24.669Z,46.60
2023-05-21T10:54:41.000Z,45.81
2023-05-21T10:57:44.472Z,46.35
2023-05-21T11:00:31.507Z,46.19
2023-05-21T11:03:17.656Z,45.31
2023-05-21T11:06:06.251Z,45.95
2023-05-21T11:08:55.328Z,45.53
2023-05-21T11:11:50.818Z,44.66
2023-05-21T11:14:43.550Z,44.57
2023-05-21T11:17:56.960Z,44.09
2023-05-21T11:20:50.282Z,43.15
2023-05-21T11:23:48.610Z,43.22
2023-05-21T11:26:52.656Z,42.61
2023-05-21T11:29:44.988Z,40.55
2023-05-21T11:32:31.601Z,40.11
2023-05-21T11:35:17.031Z,41.36
2023-05-21T11:38:02.672Z,40.48
2023-05-21T11:40:54.787Z,41.07
2023-05-21T11:43:40.663Z,41.02
2023-05-21T11:46:27.245Z,39.02
2023-05-21T11:49:12.986Z,40.07
2023-05-21T11:52:00.524Z,39.42
2023-05-21T11:54:51.245Z,37.71
2023-05-21T11:57:37.443Z,38.16
2023-05-21T12:00:23.471Z,37.91
2023-05-21T12:03:12.933Z,38.20
2023-05-21T12:06:05.657Z,37.62
2023-05-21T12:08:58.088Z,37.63
2023-05-21T12:11:43.630Z,37.80
2023-05-21T12:14:29.056Z,37.80
2023-05-21T12:17:19.162Z,38.71
2023-05-21T12:20:08.383Z,38.22
2023-05-21T12:22:54.182Z,38.04
2023-05-21T12:25:39.828Z,38.60
2023-05-21T12:28:25.435Z,38.44
2023-05-21T12:31:15.787Z,38.23
2023-05-21T12:34:02.221Z,38.02
2023-05-21T12:36:50.095Z,37.95
2023-05-21T12:39:40.149Z,37.32
2023-05-21T12:42:27.085Z,36.15
2023-05-21T12:45:13.194Z,36.86
2023-05-21T12:48:01.931Z,37.38
2023-05-21T12:50:47.122Z,36.82
2023-05-21T12:53:38.813Z,37.85
2023-05-21T12:56:25.350Z,37.54
2023-05-21T12:59:14.784Z,36.91
2023-05-21T13:02:00.476Z,36.31
2023-05-21T13:04:46.416Z,37.02
2023-05-21T13:07:33.748Z,37.01
2023-05-21T13:10:18.998Z,36.66
2023-05-21T13:13:05.087Z,35.61
2023-05-21T13:15:50.887Z,36.24
2023-05-21T13:18:36.021Z,36.36
2023-05-21T13:21:21.116Z,36.64
2023-05-21T13:24:07.372Z,36.18
2023-05-21T13:26:52.960Z,37.75
2023-05-21T13:29:38.236Z,38.48
2023-05-21T13:32:23.753Z,38.97
2023-05-21T13:35:11.908Z,38.77
2023-05-21T13:37:57.188Z,38.72
2023-05-21T13:40:42.862Z,39.17
2023-05-21T13:43:28.723Z,38.62
2023-05-21T13:46:14.253Z,38.18
2023-05-21T13:49:00.667Z,38.19
2023-05-21T13:51:46.074Z,38.34
2023-05-21T13:54:31.940Z,38.55
2023-05-21T13:57:17.616Z,38.34
2023-05-21T14:00:03.842Z,38.47
2023-05-21T14:02:53.347Z,38.51
2023-05-21T14:05:38.788Z,38.36
2023-05-21T14:08:24.767Z,38.30
2023-05-21T14:11:10.350Z,38.49
2023-05-21T14:13:55.618Z,38.42
2023-05-21T14:16:41.703Z,37.71
2023-05-21T14:19:26.975Z,37.92
2023-05-21T14:22:12.252Z,37.91
2023-05-21T14:24:57.732Z,37.94
2023-05-21T14:27:43.292Z,38.08
2023-05-21T14:30:28.536Z,38.13
2023-05-21T14:33:14.139Z,37.98
2023-05-21T14:36:00.794Z,37.67
2023-05-21T14:38:46.568Z,37.51
2023-05-21T14:41:31.905Z,37.73
2023-05-21T14:44:17.101Z,37.59
2023-05-21T14:47:02.432Z,37.39
2023-05-21T14:49:48.171Z,37.52
2023-05-21T14:52:34.631Z,37.26
2023-05-21T14:55:22.282Z,37.10
2023-05-21T14:58:07.590Z,37.14
2023-05-21T15:00:52.927Z,37.24
2023-05-21T15:03:38.228Z,37.04
2023-05-21T15:06:23.364Z,37.07
2023-05-21T15:09:09.005Z,37.12
2023-05-21T15:11:54.190Z,36.69
2023-05-21T15:14:40.061Z,37.04
2023-05-21T15:17:25.584Z,37.23
2023-05-21T15:20:11.331Z,36.89
2023-05-21T15:23:12.752Z,36.92
2023-05-21T15:26:02.517Z,37.46
2023-05-21T15:28:47.736Z,37.66
2023-05-21T15:31:33.092Z,37.50
2023-05-21T15:34:18.290Z,37.59
2023-05-21T15:37:03.493Z,38.02
2023-05-21T15:39:49.050Z,37.80
2023-05-21T15:42:34.670Z,37.74
2023-05-21T15:45:19.896Z,37.88
2023-05-21T15:48:05.450Z,37.04
2023-05-21T15:50:51.043Z,37.56
2023-05-21T15:53:36.157Z,37.46
2023-05-21T15:56:22.037Z,37.31
2023-05-21T15:59:07.516Z,37.55
2023-05-21T16:01:52.782Z,37.52
2023-05-21T16:04:38.044Z,37.15
2023-05-21T16:07:24.308Z,37.26
2023-05-21T16:10:09.757Z,36.93
2023-05-21T16:12:55.371Z,36.21
2023-05-21T16:15:40.639Z,36.06
2023-05-21T16:18:26.093Z,36.44
2023-05-21T16:21:11.306Z,36.76
2023-05-21T16:23:56.471Z,36.45
2023-05-21T16:26:43.734Z,36.57
2023-05-21T16:29:29.107Z,36.54
2023-05-21T16:32:14.445Z,36.52
2023-05-21T16:34:59.527Z,36.49
2023-05-21T16:37:48.030Z,36.61
2023-05-21T16:40:33.724Z,36.26
2023-05-21T16:43:18.776Z,36.47
2023-05-21T16:46:03.836Z,36.24
2023-05-21T16:48:48.879Z,36.25
2023-05-21T16:51:34.349Z,36.03
2023-05-21T16:54:19.832Z,36.17
2023-05-21T16:57:05.141Z,36.23
2023-05-21T16:59:54.626Z,36.55
2023-05-21T17:02:40.086Z,36.69
2023-05-21T17:05:26.358Z,36.75
2023-05-21T17:08:11.895Z,36.62
2023-05-21T17:10:57.020Z,36.65
2023-05-21T17:13:42.447Z,36.76
2023-05-21T17:16:27.836Z,37.05
2023-05-21T17:19:15.479Z,36.71
2023-05-21T17:22:00.728Z,37.01
2023-05-21T17:24:45.995Z,36.98
2023-05-21T17:27:32.302Z,37.31
2023-05-21T17:30:17.451Z,37.28
2023-05-21T17:33:03.858Z,37.38
2023-05-21T17:35:49.100Z,37.30
2023-05-21T17:38:34.694Z,37.43
2023-05-21T17:41:20.083Z,37.81
2023-05-21T17:44:05.585Z,38.09
2023-05-21T17:46:51.239Z,38.03
2023-05-21T17:49:36.804Z,38.27
2023-05-21T17:52:21.952Z,38.17
2023-05-21T17:55:07.852Z,38.40
2023-05-21T17:57:55.692Z,38.43
2023-05-21T18:00:41.129Z,38.22
2023-05-21T18:03:26.534Z,38.21
2023-05-21T18:06:11.949Z,38.30
2023-05-21T18:08:57.288Z,38.21
2023-05-21T18:11:44.351Z,38.23
2023-05-21T18:14:32.612Z,37.90
2023-05-21T18:17:18.024Z,37.78
2023-05-21T18:20:04.849Z,38.13
2023-05-21T18:22:50.687Z,38.10
2023-05-21T18:25:36.005Z,38.52
2023-05-21T18:28:21.485Z,38.54
2023-05-21T18:31:06.814Z,38.83
2023-05-21T18:33:52.321Z,38.75
2023-05-21T18:36:40.592Z,38.91
2023-05-21T18:39:27.769Z,38.97
2023-05-21T18:42:14.465Z,39.15
2023-05-21T18:45:07.358Z,39.11
2023-05-21T18:47:52.885Z,39.23
2023-05-21T18:50:38.655Z,39.15
2023-05-21T18:53:24.373Z,39.27
2023-05-21T18:56:10.232Z,39.38
2023-05-21T18:58:55.534Z,39.35
2023-05-21T19:01:41.086Z,39.18
2023-05-21T19:04:29.208Z,39.34
2023-05-21T19:07:15.980Z,39.32
2023-05-21T19:10:01.157Z,39.40
2023-05-21T19:12:49.349Z,39.42
2023-05-21T19:15:34.670Z,39.56
2023-05-21T19:18:20.044Z,39.70
2023-05-21T19:21:05.520Z,39.54
2023-05-21T19:23:53.708Z,39.76
2023-05-21T19:26:39.620Z,39.62
2023-05-21T19:29:27.171Z,39.83
2023-05-21T19:32:14.868Z,40.01
2023-05-21T19:35:00.219Z,40.17
2023-05-21T19:37:45.462Z,40.14
2023-05-21T19:40:30.882Z,40.17
2023-05-21T19:43:16.094Z,40.45
2023-05-21T19:46:01.565Z,40.46
2023-05-21T19:48:46.923Z,40.67
2023-05-21T19:51:32.107Z,40.61
2023-05-21T19:54:18.665Z,40.53
2023-05-21T19:57:03.755Z,40.29
2023-05-21T19:59:48.958Z,40.46
2023-05-21T20:02:35.252Z,40.53
2023-05-21T20:05:20.754Z,40.53
2023-05-21T20:08:05.995Z,40.45
2023-05-21T20:10:52.159Z,40.67
2023-05-21T20:13:37.830Z,40.62
2023-05-21T20:16:23.288Z,40.79
2023-05-21T20:19:10.834Z,40.79
2023-05-21T20:21:56.658Z,40.97
2023-05-21T20:24:42.546Z,40.81
2023-05-21T20:27:27.907Z,41.14
2023-05-21T20:30:13.682Z,40.73
2023-05-21T20:33:03.649Z,40.85
2023-05-21T20:35:49.206Z,41.05
2023-05-21T20:38:36.868Z,41.06
2023-05-21T20:41:22.257Z,41.12
2023-05-21T20:44:07.446Z,41.26
2023-05-21T20:46:52.798Z,41.28
2023-05-21T20:49:38.238Z,41.54
2023-05-21T20:52:24.763Z,41.28
2023-05-21T20:55:10.416Z,41.60
2023-05-21T20:57:56.066Z,41.73
2023-05-21T21:00:42.031Z,41.77
2023-05-21T21:03:30.584Z,42.01
2023-05-21T21:06:18.750Z,42.70
2023-05-21T21:09:04.419Z,42.47
2023-05-21T21:11:49.890Z,42.55
2023-05-21T21:14:35.390Z,42.79
2023-05-21T21:17:21.043Z,42.79
2023-05-21T21:20:07.544Z,42.74
2023-05-21T21:22:52.779Z,43.06
2023-05-21T21:25:38.021Z,43.33
2023-05-21T21:28:23.509Z,43.38
2023-05-21T21:31:09.271Z,43.30
2023-05-21T21:33:58.096Z,43.89
2023-05-21T21:36:43.650Z,43.79
2023-05-21T21:39:28.965Z,43.89
2023-05-21T21:42:14.495Z,43.94
2023-05-21T21:44:59.881Z,44.07
2023-05-21T21:47:45.314Z,43.96
2023-05-21T21:50:30.835Z,44.60
2023-05-21T21:53:16.608Z,44.44
2023-05-21T21:56:01.823Z,44.76
2023-05-21T21:58:47.443Z,44.75
2023-05-21T22:01:32.677Z,44.78
2023-05-21T22:04:18.043Z,45.04
2023-05-21T22:07:03.279Z,44.83
2023-05-21T22:09:48.481Z,45.25
2023-05-21T22:12:34.150Z,45.29
2023-05-21T22:15:25.104Z,45.13
2023-05-21T22:18:12.059Z,45.10
2023-05-21T22:20:57.565Z,45.29
2023-05-21T22:23:42.873Z,45.16
2023-05-21T22:26:28.250Z,44.89
2023-05-21T22:29:13.633Z,45.11
2023-05-21T22:31:58.965Z,44.83
2023-05-21T22:34:44.375Z,44.71
2023-05-21T22:37:29.459Z,44.72
2023-05-21T22:40:14.715Z,44.97
2023-05-21T22:43:00.186Z,44.86
2023-05-21T22:45:46.294Z,45.07
2023-05-21T22:48:32.975Z,44.95
2023-05-21T22:51:18.411Z,44.95
2023-05-21T22:54:03.849Z,44.78
2023-05-21T22:56:49.807Z,44.88
2023-05-21T22:59:35.057Z,44.80
2023-05-21T23:02:20.693Z,44.96
2023-05-21T23:05:06.252Z,45.22
2023-05-21T23:07:51.823Z,45.13
2023-05-21T23:10:37.337Z,45.10
2023-05-21T23:13:23.099Z,45.54
2023-05-21T23:16:08.305Z,45.49
2023-05-21T23:18:54.377Z,45.43
2023-05-21T23:21:40.051Z,45.39
2023-05-21T23:24:25.670Z,45.48
2023-05-21T23:27:10.836Z,45.48
2023-05-21T23:29:56.014Z,45.39
2023-05-21T23:32:41.310Z,45.52
2023-05-21T23:35:26.642Z,45.75
2023-05-21T23:38:11.942Z,45.60
2023-05-21T23:40:57.092Z,45.80
2023-05-21T23:43:42.723Z,45.81
2023-05-21T23:46:27.870Z,45.67
2023-05-21T23:49:13.289Z,45.73
2023-05-21T23:51:59.190Z,45.76
2023-05-21T23:54:46.217Z,45.60
2023-05-21T23:57:33.669Z,45.79
